Time;durP1;ratioP1;P1;durP2;ratioP2;P2;SDS_P1;SDS_P2;PMS_P1;PMS_P2;Temp;Humidity;BMP_temperature;BMP_pressure;BME280_temperature;BME280_humidity;BME280_pressure;Samples;Min_cycle;Max_cycle;Signal;HPM_P1;HPM_P2
2022/08/29 00:01:24;;;;;;;13.27;5.90;;;;;;;26.40;44.34;100876.59;5074247;28;20414;-60
2022/08/29 00:04:17;;;;;;;13.15;5.65;;;;;;;26.32;44.27;100886.13;5087787;27;20418;-60
2022/08/29 00:06:43;;;;;;;10.13;5.87;;;;;;;26.28;44.44;100887.75;5072361;28;20399;-59
2022/08/29 00:09:08;;;;;;;15.50;6.40;;;;;;;26.24;44.38;100881.25;5066822;28;20392;-60
2022/08/29 00:11:34;;;;;;;12.95;6.40;;;;;;;26.17;44.23;100880.69;5066208;28;20797;-59
2022/08/29 00:13:59;;;;;;;12.25;6.10;;;;;;;26.09;44.38;100880.16;5065203;28;20388;-60
2022/08/29 00:16:25;;;;;;;12.47;6.33;;;;;;;26.09;44.65;100884.75;5066189;28;20947;-60
2022/08/29 00:19:40;;;;;;;15.43;6.18;;;;;;;26.04;44.90;100888.28;5046135;28;20915;-60
2022/08/29 00:22:06;;;;;;;13.77;6.90;;;;;;;25.99;44.98;100896.44;5045930;28;20448;-60
2022/08/29 00:24:31;;;;;;;12.47;6.37;;;;;;;25.96;44.73;100901.56;5045855;28;20760;-60
2022/08/29 00:26:59;;;;;;;11.05;5.97;;;;;;;25.95;44.95;100889.91;5046010;28;20903;-60
2022/08/29 00:29:25;;;;;;;12.05;6.00;;;;;;;25.92;44.96;100883.06;5045942;28;20394;-60
2022/08/29 00:31:51;;;;;;;12.52;5.88;;;;;;;25.87;44.95;100882.25;5046082;28;20924;-61
2022/08/29 00:34:16;;;;;;;10.20;5.80;;;;;;;25.85;44.90;100885.22;5045933;28;20386;-61
2022/08/29 00:36:42;;;;;;;9.02;5.82;;;;;;;25.87;44.92;100883.03;5045937;28;20378;-61
2022/08/29 00:39:07;;;;;;;9.52;5.30;;;;;;;25.87;44.65;100882.25;5046013;28;20783;-60
2022/08/29 00:41:33;;;;;;;10.73;5.80;;;;;;;25.88;44.81;100883.88;5045697;28;20479;-60
2022/08/29 00:43:58;;;;;;;10.20;5.50;;;;;;;25.85;44.66;100885.22;5046048;28;20485;-60
2022/08/29 00:46:56;;;;;;;10.80;5.68;;;;;;;25.82;44.94;100896.63;5085986;27;20811;-60
2022/08/29 00:49:32;;;;;;;14.80;5.80;;;;;;;25.81;45.20;100891.47;5072560;28;20394;-60
2022/08/29 00:52:10;;;;;;;8.98;5.57;;;;;;;25.75;45.30;100891.44;5072058;28;20382;-60
2022/08/29 00:54:37;;;;;;;9.45;5.70;;;;;;;25.71;45.55;100903.09;5076201;28;20450;-60
2022/08/29 00:57:25;;;;;;;14.48;5.63;;;;;;;25.64;45.52;100894.38;5046588;28;20414;-60
2022/08/29 00:59:51;;;;;;;9.70;5.65;;;;;;;25.56;45.91;100893.81;5034678;28;20406;-61
2022/08/29 01:02:17;;;;;;;10.40;5.82;;;;;;;25.55;45.74;100885.94;5028652;28;20384;-61
2022/08/29 01:04:44;;;;;;;11.27;5.55;;;;;;;25.61;45.98;100895.75;5027070;28;20501;-60
2022/08/29 01:07:11;;;;;;;9.68;6.03;;;;;;;25.60;46.04;100894.09;5027221;28;20384;-60
2022/08/29 01:14:30;;;;;;;8.60;5.60;;;;;;;25.53;46.26;100896.25;5086412;27;20456;-59
2022/08/29 01:16:59;;;;;;;10.93;5.50;;;;;;;25.44;46.38;100906.78;5087354;28;20398;-59
2022/08/29 01:20:17;;;;;;;7.10;5.70;;;;;;;25.44;46.75;100909.50;5057100;28;20411;-60
2022/08/29 01:23:05;;;;;;;9.55;5.97;;;;;;;25.45;46.86;100907.63;5027263;28;20457;-60
2022/08/29 01:25:36;;;;;;;10.00;5.97;;;;;;;25.47;46.94;100911.69;5026955;28;20390;-60
2022/08/29 01:28:24;;;;;;;11.15;5.70;;;;;;;25.46;47.00;100915.50;5027191;28;20387;-60
2022/08/29 01:31:05;;;;;;;9.00;5.93;;;;;;;25.42;46.94;100906.25;5026847;28;20422;-60
2022/08/29 01:33:47;;;;;;;7.63;5.63;;;;;;;25.42;47.06;100908.16;5027608;28;20927;-59
2022/08/29 01:36:16;;;;;;;12.33;6.00;;;;;;;25.38;47.14;100897.81;5026771;28;20794;-62
2022/08/29 01:38:42;;;;;;;8.43;6.30;;;;;;;25.37;47.28;100895.38;5026350;28;20421;-59
2022/08/29 01:41:09;;;;;;;8.90;5.97;;;;;;;25.37;47.18;100912.50;5026794;28;20396;-59
2022/08/29 01:43:41;;;;;;;11.23;6.38;;;;;;;25.35;47.31;100908.38;5026981;28;20874;-59
2022/08/29 01:46:08;;;;;;;13.82;6.40;;;;;;;25.34;47.42;100906.78;5026901;28;20390;-59
2022/08/29 01:48:36;;;;;;;10.88;6.40;;;;;;;25.31;47.54;100908.09;5041030;28;20881;-60
2022/08/29 01:51:02;;;;;;;11.43;6.30;;;;;;;25.30;47.55;100916.50;5040982;28;20829;-60
2022/08/29 01:53:28;;;;;;;10.87;6.07;;;;;;;25.27;47.57;100904.28;5026733;28;20422;-59
2022/08/29 01:55:53;;;;;;;10.75;6.20;;;;;;;25.26;47.75;100912.69;5024832;28;20439;-59
2022/08/29 01:58:19;;;;;;;7.10;6.23;;;;;;;25.24;47.68;100922.97;5026349;28;20415;-59
2022/08/29 02:00:44;;;;;;;13.77;6.83;;;;;;;25.23;47.74;100922.16;5026545;28;20471;-59
2022/08/29 02:04:01;;;;;;;9.85;6.45;;;;;;;25.17;47.95;100918.59;5106856;27;20405;-60
2022/08/29 02:06:27;;;;;;;9.70;6.65;;;;;;;25.20;48.04;100917.25;5107326;28;20446;-61
2022/08/29 02:08:53;;;;;;;11.20;6.55;;;;;;;25.18;47.95;100914.78;5107605;28;20393;-60
2022/08/29 02:11:19;;;;;;;10.50;6.57;;;;;;;25.17;47.86;100924.03;5107536;28;20954;-60
2022/08/29 02:13:56;;;;;;;8.57;6.90;;;;;;;25.16;48.27;100921.56;5107571;28;20387;-60
2022/08/29 02:16:24;;;;;;;10.15;6.70;;;;;;;25.15;48.25;100914.50;5107122;28;20463;-61
2022/08/29 02:18:50;;;;;;;12.63;6.63;;;;;;;25.16;48.31;100914.25;5107138;28;20388;-60
2022/08/29 02:21:19;;;;;;;11.27;6.57;;;;;;;25.15;48.42;100919.94;5101024;28;20386;-60
2022/08/29 02:23:45;;;;;;;11.68;7.30;;;;;;;25.13;48.27;100925.59;5095994;28;20411;-60
2022/08/29 02:26:11;;;;;;;12.50;6.73;;;;;;;25.14;48.44;100935.41;5107268;28;20400;-61
2022/08/29 02:28:38;;;;;;;11.57;7.03;;;;;;;25.15;48.36;100925.34;5090831;28;20386;-61
2022/08/29 02:31:05;;;;;;;10.95;6.47;;;;;;;25.18;48.41;100933.78;5086525;28;20386;-61
2022/08/29 02:35:35;;;;;;;9.65;6.28;;;;;;;25.13;48.52;100941.88;5088078;27;20840;-60
2022/08/29 02:38:02;;;;;;;12.88;6.72;;;;;;;25.11;48.65;100946.75;5086805;28;20394;-60
2022/08/29 02:40:29;;;;;;;11.68;7.00;;;;;;;25.08;48.77;100939.13;5085847;28;20374;-60
2022/08/29 02:42:55;;;;;;;13.55;7.05;;;;;;;25.06;48.70;100937.78;5099509;28;20776;-60
2022/08/29 02:45:21;;;;;;;10.45;7.15;;;;;;;25.06;48.93;100946.72;5086560;28;20876;-60
2022/08/29 02:47:47;;;;;;;12.70;6.63;;;;;;;25.10;49.19;100947.84;5086630;28;20382;-60
2022/08/29 02:50:13;;;;;;;10.43;7.22;;;;;;;25.08;48.89;100939.13;5085406;28;20443;-60
2022/08/29 02:52:40;;;;;;;11.13;7.03;;;;;;;25.08;48.96;100941.03;5086775;28;20940;-60
2022/08/29 02:55:08;;;;;;;11.77;7.22;;;;;;;25.09;48.87;100942.69;5085582;28;20930;-59
2022/08/29 02:57:33;;;;;;;9.85;7.90;;;;;;;25.08;48.88;100941.03;5085809;28;20385;-60
2022/08/29 02:59:59;;;;;;;11.47;8.23;;;;;;;25.08;48.85;100946.47;5085954;28;20378;-60
2022/08/29 03:02:25;;;;;;;10.87;7.90;;;;;;;25.07;48.95;100942.94;5086244;28;20374;-60
2022/08/29 03:05:26;;;;;;;11.88;7.60;;;;;;;25.12;48.92;100956.53;5087395;27;20403;-60
2022/08/29 03:07:53;;;;;;;9.40;6.67;;;;;;;25.09;48.89;100956.25;5086665;28;20404;-59
2022/08/29 03:10:19;;;;;;;12.02;6.60;;;;;;;25.11;48.90;100962.22;5086766;28;20386;-60
2022/08/29 03:12:46;;;;;;;10.10;7.13;;;;;;;25.11;49.05;100965.75;5086518;28;20872;-62
2022/08/29 03:15:12;;;;;;;12.33;7.10;;;;;;;25.10;48.81;100968.72;5086026;28;20390;-60
2022/08/29 03:17:38;;;;;;;11.17;7.03;;;;;;;25.11;48.74;100973.06;5086141;28;20390;-60
2022/08/29 03:20:07;;;;;;;12.55;6.75;;;;;;;25.07;48.61;100970.06;5086231;28;20840;-60
2022/08/29 03:22:33;;;;;;;13.15;7.50;;;;;;;25.09;48.75;100980.66;5086351;28;20378;-63
2022/08/29 03:25:01;;;;;;;9.32;6.85;;;;;;;25.09;48.51;100976.03;5086323;28;20757;-59
2022/08/29 03:27:27;;;;;;;13.00;6.90;;;;;;;25.07;48.46;100977.41;5086059;28;20737;-59
2022/08/29 03:29:53;;;;;;;11.48;7.07;;;;;;;25.05;48.59;100974.94;5085999;28;20898;-60
2022/08/29 03:32:18;;;;;;;10.50;7.00;;;;;;;25.05;48.56;100982.22;5086386;28;20378;-60
2022/08/29 03:34:44;;;;;;;10.63;7.13;;;;;;;25.06;48.62;100983.88;5086302;28;20469;-60
2022/08/29 03:37:09;;;;;;;10.80;6.95;;;;;;;25.06;48.66;100987.41;5086217;28;20437;-60
2022/08/29 03:39:36;;;;;;;11.93;7.77;;;;;;;25.03;48.56;100990.66;5086415;28;20741;-60
2022/08/29 03:42:03;;;;;;;14.98;7.70;;;;;;;25.07;48.62;100996.38;5085989;28;20383;-60
2022/08/29 03:44:37;;;;;;;12.87;7.53;;;;;;;25.07;48.53;101001.81;5086071;28;20417;-62
2022/08/29 03:47:04;;;;;;;12.07;8.10;;;;;;;25.05;48.65;101002.06;5083954;28;20439;-60
2022/08/29 03:49:30;;;;;;;15.95;7.68;;;;;;;25.07;48.62;100999.09;5084861;28;20390;-62
2022/08/29 03:51:56;;;;;;;12.13;7.77;;;;;;;25.04;48.65;101003.13;5083133;28;21087;-61
2022/08/29 03:54:22;;;;;;;11.63;7.80;;;;;;;25.06;48.40;101009.09;5083346;28;20806;-62
2022/08/29 03:56:48;;;;;;;21.38;8.57;;;;;;;25.08;48.54;101009.66;5083771;28;20932;-60
2022/08/29 03:59:14;;;;;;;12.70;8.38;;;;;;;25.10;48.47;101002.09;5085364;28;20477;-63
2022/08/29 04:01:39;;;;;;;16.08;8.23;;;;;;;25.14;48.50;101013.25;5084880;28;20410;-60
2022/08/29 04:04:05;;;;;;;13.70;7.55;;;;;;;25.14;48.44;101013.25;5084843;28;20473;-60
2022/08/29 04:06:32;;;;;;;14.33;8.23;;;;;;;25.14;48.38;101015.97;5083792;28;20426;-62
2022/08/29 04:08:59;;;;;;;12.45;8.07;;;;;;;25.18;48.31;101020.59;5080978;28;20385;-61
2022/08/29 04:11:25;;;;;;;13.55;7.70;;;;;;;25.25;48.09;101017.69;5082304;28;20400;-62
2022/08/29 04:13:52;;;;;;;14.57;8.43;;;;;;;25.35;47.79;101027.78;5083861;28;20382;-61
2022/08/29 04:16:24;;;;;;;12.80;8.50;;;;;;;25.43;47.64;101030.03;5072270;28;20382;-61
2022/08/29 04:18:49;;;;;;;13.55;8.40;;;;;;;25.52;47.57;101039.31;5070040;28;20383;-59
2022/08/29 04:21:15;;;;;;;12.25;8.00;;;;;;;25.60;47.17;101043.41;5071209;28;20410;-61
2022/08/29 04:23:41;;;;;;;18.27;8.03;;;;;;;25.75;46.73;101042.69;5069777;28;20916;-61
2022/08/29 04:26:18;;;;;;;12.63;7.97;;;;;;;25.94;46.26;101049.31;5070317;28;20386;-59
2022/08/29 04:28:45;;;;;;;13.93;8.27;;;;;;;26.08;46.16;101057.00;5066644;28;20821;-60
2022/08/29 04:31:12;;;;;;;10.70;7.60;;;;;;;26.29;45.86;101056.00;5070772;28;20376;-63
2022/08/29 04:33:37;;;;;;;14.40;8.00;;;;;;;26.43;45.24;101056.28;5072977;28;20482;-62
2022/08/29 04:36:07;;;;;;;12.30;8.43;;;;;;;26.58;44.94;101060.13;5068405;28;20478;-65
2022/08/29 04:38:32;;;;;;;12.40;7.63;;;;;;;26.65;44.97;101058.00;5066183;28;20386;-62
2022/08/29 04:40:58;;;;;;;14.20;7.97;;;;;;;26.71;44.82;101059.66;5069600;28;20756;-61
2022/08/29 04:43:24;;;;;;;13.00;7.50;;;;;;;26.83;44.38;101059.38;5069754;28;20972;-59
2022/08/29 04:45:56;;;;;;;14.83;7.70;;;;;;;27.10;43.64;101061.84;5070873;28;20383;-60
2022/08/29 04:48:21;;;;;;;15.65;7.90;;;;;;;27.42;43.40;101063.47;5071362;28;20414;-61
2022/08/29 04:50:58;;;;;;;18.47;8.33;;;;;;;27.81;42.25;101071.03;5071610;28;20421;-60
2022/08/29 04:53:25;;;;;;;19.13;8.93;;;;;;;28.11;41.91;101061.94;5070820;28;20880;-60
2022/08/29 04:56:06;;;;;;;14.32;8.23;;;;;;;28.42;41.12;101067.25;5071431;28;20749;-61
2022/08/29 04:58:34;;;;;;;16.10;8.57;;;;;;;28.81;40.53;101076.56;5071710;28;20386;-60
2022/08/29 05:00:59;;;;;;;14.27;9.23;;;;;;;29.16;39.75;101062.66;5071439;28;20436;-61
2022/08/29 05:03:25;;;;;;;17.27;9.45;;;;;;;29.58;39.07;101086.84;5069740;28;20422;-63
2022/08/29 05:06:02;;;;;;;15.77;8.70;;;;;;;29.86;38.56;101063.34;5069348;28;20387;-61
2022/08/29 05:08:29;;;;;;;15.27;8.25;;;;;;;30.18;37.87;101072.78;5069202;28;20394;-63
2022/08/29 05:10:54;;;;;;;15.93;8.82;;;;;;;30.62;37.08;101067.00;5070250;28;20375;-63
2022/08/29 05:13:21;;;;;;;15.80;9.27;;;;;;;31.12;36.10;101071.19;5070247;28;20812;-61
2022/08/29 05:15:48;;;;;;;16.17;9.35;;;;;;;31.51;35.52;101072.69;5070408;28;20386;-61
2022/08/29 05:18:15;;;;;;;16.50;8.68;;;;;;;31.90;34.85;101071.38;5069580;28;20429;-60
2022/08/29 05:20:43;;;;;;;14.00;8.20;;;;;;;32.22;34.22;101067.72;5070750;28;20395;-60
2022/08/29 05:23:09;;;;;;;12.63;8.27;;;;;;;32.85;33.57;101077.00;5071091;28;20394;-61
2022/08/29 05:25:35;;;;;;;16.77;8.63;;;;;;;34.41;31.03;101076.06;5079803;28;20450;-61
2022/08/29 05:28:00;;;;;;;15.20;9.00;;;;;;;36.08;28.60;101074.50;5069794;28;20394;-61
2022/08/29 05:30:26;;;;;;;14.68;8.40;;;;;;;37.43;26.72;101073.47;5070294;28;20399;-61
2022/08/29 05:32:53;;;;;;;13.13;7.63;;;;;;;38.42;25.37;101069.47;5078915;28;20397;-61
2022/08/29 05:35:20;;;;;;;14.00;6.82;;;;;;;39.31;24.18;101070.34;5089355;28;20382;-62
2022/08/29 05:37:45;;;;;;;15.75;7.38;;;;;;;39.95;23.77;101065.53;5071146;28;20477;-61
2022/08/29 05:40:11;;;;;;;14.15;6.88;;;;;;;40.64;22.94;101062.25;5070355;28;20481;-58
2022/08/29 05:42:36;;;;;;;9.35;6.13;;;;;;;41.38;21.68;101065.94;5082751;28;20786;-59
2022/08/29 05:45:04;;;;;;;14.82;6.57;;;;;;;41.82;21.47;101060.69;5070462;28;20513;-60
2022/08/29 05:47:30;;;;;;;9.73;5.83;;;;;;;42.23;20.86;101065.66;5070228;28;20970;-60
2022/08/29 05:49:56;;;;;;;10.55;6.57;;;;;;;42.91;19.99;101060.03;5069379;28;20390;-61
2022/08/29 05:52:22;;;;;;;14.32;6.80;;;;;;;40.99;21.82;101066.88;5069494;28;20460;-60
2022/08/29 05:54:48;;;;;;;12.52;6.00;;;;;;;38.81;24.70;101072.56;5068946;28;20390;-63
2022/08/29 05:57:17;;;;;;;14.15;6.40;;;;;;;37.34;26.32;101072.78;5066455;28;20485;-60
2022/08/29 05:59:42;;;;;;;12.35;6.15;;;;;;;36.17;27.87;101069.72;5069645;28;20482;-59
2022/08/29 06:02:09;;;;;;;14.10;6.97;;;;;;;35.44;28.98;101082.91;5069558;28;20478;-60
2022/08/29 06:04:35;;;;;;;17.15;7.35;;;;;;;34.82;30.01;101069.25;5064546;28;20407;-60
2022/08/29 06:07:01;;;;;;;14.80;6.13;;;;;;;34.25;30.61;101066.66;5069218;28;20402;-60
2022/08/29 06:09:27;;;;;;;9.67;6.00;;;;;;;33.90;31.23;101072.06;5070017;28;20391;-60
2022/08/29 06:11:53;;;;;;;12.93;6.20;;;;;;;33.81;31.63;101065.72;5070004;28;20465;-59
2022/08/29 06:14:19;;;;;;;12.23;6.23;;;;;;;33.86;31.08;101066.41;5069659;28;20483;-61
2022/08/29 06:16:44;;;;;;;15.83;6.20;;;;;;;33.80;31.32;101069.59;5069729;28;20383;-60
2022/08/29 06:19:11;;;;;;;12.93;6.18;;;;;;;33.92;31.23;101066.25;5069256;28;20440;-60
2022/08/29 06:21:37;;;;;;;8.75;6.10;;;;;;;34.90;29.46;101070.41;5069886;28;20395;-60
2022/08/29 06:24:03;;;;;;;12.17;5.97;;;;;;;35.31;29.47;101065.44;5069651;28;20476;-60
2022/08/29 06:26:30;;;;;;;14.00;6.07;;;;;;;36.74;26.84;101062.81;5069499;28;20930;-61
2022/08/29 06:28:55;;;;;;;9.60;6.00;;;;;;;35.43;28.99;101079.34;5069758;28;20402;-60
2022/08/29 06:31:25;;;;;;;12.43;6.07;;;;;;;34.55;30.20;101072.34;5069226;28;20781;-60
2022/08/29 06:33:53;;;;;;;13.43;5.75;;;;;;;34.07;30.92;101076.81;5077053;28;20383;-60
2022/08/29 06:36:20;;;;;;;14.23;6.43;;;;;;;33.74;31.79;101076.38;5069382;28;20967;-60
2022/08/29 06:38:45;;;;;;;8.68;5.93;;;;;;;33.59;31.94;101086.66;5068818;28;20403;-60
2022/08/29 06:41:15;;;;;;;13.37;6.20;;;;;;;33.41;32.26;101079.47;5069084;28;20398;-60
2022/08/29 06:43:42;;;;;;;11.10;6.80;;;;;;;33.22;32.79;101087.91;5069437;28;20418;-60
2022/08/29 06:46:17;;;;;;;14.45;7.00;;;;;;;33.20;32.79;101087.41;5069490;28;20410;-61
2022/08/29 06:48:42;;;;;;;10.70;6.55;;;;;;;33.16;32.82;101097.44;5085384;28;20809;-60
2022/08/29 06:51:08;;;;;;;11.15;6.72;;;;;;;33.11;33.25;101096.38;5078591;28;20382;-60
2022/08/29 06:53:33;;;;;;;9.43;6.28;;;;;;;33.05;33.09;101091.34;5068618;28;20399;-60
2022/08/29 06:56:04;;;;;;;12.85;6.97;;;;;;;32.98;33.33;101097.28;5069120;28;20856;-61
2022/08/29 06:58:29;;;;;;;15.30;7.18;;;;;;;33.06;33.52;101096.53;5068977;28;20391;-61
2022/08/29 07:00:55;;;;;;;9.67;6.40;;;;;;;33.61;32.62;101103.63;5069043;28;20387;-60
2022/08/29 07:03:21;;;;;;;11.90;6.73;;;;;;;34.26;31.58;101098.53;5067407;28;20464;-60
2022/08/29 07:05:52;;;;;;;10.65;6.25;;;;;;;33.96;31.91;101095.56;5068839;28;20463;-60
2022/08/29 07:08:18;;;;;;;11.40;6.53;;;;;;;33.65;32.29;101099.16;5068338;28;20395;-60
2022/08/29 07:10:44;;;;;;;9.20;5.90;;;;;;;34.79;30.86;101091.97;5068525;28;20390;-60
2022/08/29 07:13:10;;;;;;;10.15;5.90;;;;;;;38.96;25.10;101092.34;5080195;28;20381;-60
2022/08/29 07:15:35;;;;;;;11.17;5.63;;;;;;;39.79;23.93;101095.28;5082730;28;20440;-59
2022/08/29 07:18:01;;;;;;;9.03;6.03;;;;;;;41.41;22.50;101091.03;5068893;28;20497;-61
2022/08/29 07:20:27;;;;;;;9.07;5.50;;;;;;;42.89;20.64;101082.69;5069350;28;20481;-61
2022/08/29 07:22:52;;;;;;;8.23;5.13;;;;;;;44.24;19.39;101081.34;5068832;28;20421;-60
2022/08/29 07:25:19;;;;;;;8.97;4.80;;;;;;;44.76;18.38;101083.16;5072880;28;20505;-60
2022/08/29 07:27:46;;;;;;;10.75;5.05;;;;;;;44.07;19.24;101090.44;5068006;28;20908;-61
2022/08/29 07:30:15;;;;;;;8.52;4.88;;;;;;;42.61;20.22;101086.03;5068714;28;20936;-60
2022/08/29 07:32:43;;;;;;;8.98;4.75;;;;;;;41.53;20.98;101086.47;5069109;28;20383;-60
2022/08/29 07:35:10;;;;;;;9.95;4.70;;;;;;;41.15;21.54;101083.44;5068382;28;20379;-60
2022/08/29 07:37:35;;;;;;;9.20;4.10;;;;;;;40.81;21.34;101077.66;5068399;28;20387;-60
2022/08/29 07:40:01;;;;;;;8.73;4.20;;;;;;;40.64;21.51;101086.44;5067967;28;20387;-63
2022/08/29 07:42:26;;;;;;;6.80;3.70;;;;;;;40.20;21.03;101087.50;5067162;28;20418;-60
2022/08/29 07:44:52;;;;;;;6.53;3.70;;;;;;;39.96;21.12;101080.25;5068348;28;20426;-60
2022/08/29 07:47:17;;;;;;;13.40;3.22;;;;;;;39.80;20.90;101085.81;5068367;28;20402;-60
2022/08/29 07:49:43;;;;;;;6.78;3.70;;;;;;;39.62;20.90;101082.59;5068968;28;20387;-60
2022/08/29 07:52:09;;;;;;;6.10;3.30;;;;;;;39.33;21.14;101081.88;5072228;28;20387;-60
2022/08/29 07:54:35;;;;;;;8.43;3.38;;;;;;;39.11;21.32;101074.16;5071806;28;20480;-60
2022/08/29 07:57:00;;;;;;;6.10;3.33;;;;;;;38.93;21.69;101077.25;5071827;28;20398;-61
2022/08/29 07:59:26;;;;;;;10.60;3.33;;;;;;;38.68;22.12;101075.75;5072531;28;20394;-60
2022/08/29 08:01:52;;;;;;;8.73;3.70;;;;;;;38.33;22.42;101070.78;5071775;28;20399;-60
2022/08/29 08:04:18;;;;;;;4.40;2.90;;;;;;;38.06;22.40;101079.47;5071496;28;20423;-60
2022/08/29 08:06:44;;;;;;;6.07;2.90;;;;;;;37.95;22.29;101074.75;5071131;28;20486;-60
2022/08/29 08:09:10;;;;;;;6.47;2.80;;;;;;;37.64;22.39;101076.97;5071402;28;20477;-60
2022/08/29 08:11:38;;;;;;;6.28;2.80;;;;;;;37.44;22.86;101078.66;5070974;28;20402;-60
2022/08/29 08:14:03;;;;;;;4.47;3.13;;;;;;;37.36;22.87;101071.28;5071970;28;20394;-59
2022/08/29 08:16:30;;;;;;;7.73;3.00;;;;;;;37.34;22.88;101083.84;5072125;28;20899;-60
2022/08/29 08:18:55;;;;;;;3.08;2.40;;;;;;;37.10;22.22;101079.84;5069633;28;20410;-60
2022/08/29 08:21:22;;;;;;;4.23;2.07;;;;;;;36.71;22.28;101079.25;5071486;28;20387;-60
2022/08/29 08:23:48;;;;;;;5.10;2.40;;;;;;;36.27;22.88;101085.13;5071629;28;20414;-59
2022/08/29 08:26:14;;;;;;;8.90;2.77;;;;;;;35.92;23.22;101093.56;5071363;28;20827;-60
2022/08/29 08:28:41;;;;;;;3.10;2.30;;;;;;;35.68;23.54;101088.66;5071711;28;20401;-59
2022/08/29 08:31:09;;;;;;;8.00;2.20;;;;;;;35.49;23.54;101096.53;5071123;28;20459;-60
2022/08/29 08:33:39;;;;;;;3.30;2.20;;;;;;;35.25;23.50;101086.06;5071633;28;20478;-60
2022/08/29 08:36:19;;;;;;;4.93;2.30;;;;;;;34.96;23.80;101091.13;5071503;28;20909;-59
2022/08/29 08:38:46;;;;;;;6.27;3.20;;;;;;;34.71;24.36;101092.75;5071839;28;20406;-59
2022/08/29 08:41:17;;;;;;;4.43;2.10;;;;;;;34.61;24.50;101090.31;5070610;28;20387;-59
2022/08/29 08:43:49;;;;;;;5.95;2.33;;;;;;;34.52;24.86;101086.75;5071689;28;20410;-59
2022/08/29 08:46:15;;;;;;;4.25;2.50;;;;;;;34.47;25.08;101088.53;5070589;28;20402;-61
2022/08/29 08:48:42;;;;;;;4.07;2.70;;;;;;;34.45;25.50;101087.25;5069805;28;20367;-60
2022/08/29 08:51:26;;;;;;;6.97;2.85;;;;;;;34.41;25.52;101076.06;5070778;28;20391;-59
2022/08/29 08:53:56;;;;;;;4.65;2.50;;;;;;;34.42;25.51;101074.94;5051871;28;20388;-60
2022/08/29 08:56:34;;;;;;;4.55;2.90;;;;;;;34.38;25.75;101071.22;5069610;28;20381;-59
2022/08/29 08:59:15;;;;;;;6.93;3.17;;;;;;;34.30;26.00;101072.00;5092370;28;20390;-60
2022/08/29 09:01:46;;;;;;;6.57;2.90;;;;;;;34.34;25.91;101067.50;5091947;28;20378;-60
2022/08/29 09:04:24;;;;;;;7.50;3.30;;;;;;;34.30;26.19;101066.50;5091493;28;20899;-63
2022/08/29 09:06:52;;;;;;;3.85;2.47;;;;;;;34.23;26.41;101068.91;5091462;28;20389;-59
2022/08/29 09:09:52;;;;;;;5.00;2.42;;;;;;;34.18;26.00;101066.34;5076265;28;20382;-60
2022/08/29 09:12:35;;;;;;;5.32;2.60;;;;;;;34.14;25.21;101070.81;5071393;28;21374;-60
2022/08/29 09:15:22;;;;;;;4.97;2.30;;;;;;;34.07;25.13;101063.84;5071491;28;20885;-60
2022/08/29 09:18:06;;;;;;;5.80;2.60;;;;;;;34.11;24.91;101066.78;5071235;28;20375;-59
2022/08/29 09:20:35;;;;;;;3.60;2.30;;;;;;;34.14;24.95;101063.41;5071236;28;20378;-59
2022/08/29 09:23:06;;;;;;;5.63;2.70;;;;;;;34.31;25.20;101059.88;5071284;28;20386;-59
2022/08/29 09:25:35;;;;;;;4.10;2.10;;;;;;;34.47;25.06;101057.44;5071144;28;20414;-59
2022/08/29 09:28:03;;;;;;;5.50;2.83;;;;;;;34.54;24.75;101052.25;5070957;28;20436;-60
2022/08/29 09:30:32;;;;;;;5.05;2.90;;;;;;;34.58;25.52;101044.16;5070850;28;20432;-60
2022/08/29 09:33:03;;;;;;;5.47;2.60;;;;;;;34.73;25.66;101051.13;5070769;28;20964;-60
2022/08/29 09:35:42;;;;;;;5.45;2.28;;;;;;;34.84;25.45;101046.91;5071041;28;20496;-60
2022/08/29 09:38:17;;;;;;;4.68;2.58;;;;;;;34.95;25.34;101042.69;5070972;28;20375;-63
2022/08/29 09:40:56;;;;;;;7.97;2.10;;;;;;;34.94;24.95;101032.78;5070709;28;20919;-59
2022/08/29 09:43:29;;;;;;;6.18;2.78;;;;;;;35.00;25.27;101036.97;5070703;28;20383;-60
2022/08/29 09:46:17;;;;;;;4.65;2.35;;;;;;;35.12;25.18;101033.56;5086909;28;20460;-60
2022/08/29 09:49:11;;;;;;;4.10;2.30;;;;;;;35.19;25.06;101030.31;5091009;28;20393;-60
2022/08/29 09:51:42;;;;;;;4.63;2.30;;;;;;;35.18;23.96;101034.19;5091010;28;20378;-59
2022/08/29 09:54:30;;;;;;;3.67;2.73;;;;;;;35.25;24.29;101023.47;5090641;28;20400;-60
2022/08/29 09:57:10;;;;;;;4.93;2.50;;;;;;;35.30;23.79;101025.25;5090872;28;20392;-59
2022/08/29 09:59:39;;;;;;;2.70;2.00;;;;;;;35.33;23.69;101019.06;5090859;28;20893;-58
2022/08/29 10:02:13;;;;;;;5.88;2.92;;;;;;;35.38;23.70;101022.47;5076632;28;20401;-60
2022/08/29 10:04:41;;;;;;;3.67;2.40;;;;;;;35.37;23.28;101014.53;5074203;28;20434;-59
2022/08/29 10:07:16;;;;;;;4.60;2.83;;;;;;;35.34;23.94;101015.19;5085737;28;20377;-59
2022/08/29 10:09:53;;;;;;;5.18;2.35;;;;;;;35.21;23.26;101012.31;5073390;28;20812;-59
2022/08/29 10:12:25;;;;;;;4.40;2.38;;;;;;;35.14;23.42;101014.75;5078502;28;20387;-60
2022/08/29 10:14:55;;;;;;;4.68;2.83;;;;;;;35.10;24.07;101007.47;5075160;28;20522;-60
2022/08/29 10:20:13;;;;;;;5.40;3.10;;;;;;;35.16;24.55;101001.44;5089531;28;20428;-60
2022/08/29 10:22:55;;;;;;;4.77;2.60;;;;;;;35.23;23.96;101000.97;5089091;28;20401;-60
2022/08/29 10:25:35;;;;;;;3.58;2.42;;;;;;;35.16;24.33;101000.63;5079737;28;20457;-59
2022/08/29 10:28:09;;;;;;;4.68;2.53;;;;;;;35.12;24.62;101002.44;5069279;28;20382;-60
2022/08/29 10:30:48;;;;;;;3.33;2.77;;;;;;;35.14;24.65;101005.69;5068972;28;20410;-60
2022/08/29 10:33:22;;;;;;;3.78;2.70;;;;;;;35.09;24.75;100998.38;5069199;28;20482;-61
2022/08/29 10:36:06;;;;;;;5.07;2.50;;;;;;;35.09;24.10;100992.88;5069562;28;20894;-60
2022/08/29 10:38:44;;;;;;;3.60;2.50;;;;;;;34.99;24.42;100996.81;5068949;28;20378;-60
2022/08/29 10:41:29;;;;;;;4.57;2.80;;;;;;;34.98;24.50;100997.13;5069089;28;20436;-60
2022/08/29 10:44:29;;;;;;;3.92;2.67;;;;;;;34.79;24.62;100995.56;5068968;28;20405;-59
2022/08/29 10:47:13;;;;;;;6.38;2.95;;;;;;;34.75;25.12;100991.03;5069073;28;20400;-59
2022/08/29 10:49:57;;;;;;;5.05;2.83;;;;;;;34.74;25.38;100983.94;5069438;28;20757;-59
2022/08/29 10:52:34;;;;;;;5.85;2.70;;;;;;;34.81;25.51;100979.53;5069553;28;20411;-61
2022/08/29 10:55:02;;;;;;;3.78;2.60;;;;;;;34.79;25.60;100980.97;5069456;28;20876;-61
2022/08/29 10:57:45;;;;;;;3.97;2.80;;;;;;;34.71;25.80;100971.59;5069172;28;20386;-59
2022/08/29 11:00:23;;;;;;;4.78;2.78;;;;;;;34.72;25.93;100966.91;5069357;28;20379;-60
2022/08/29 11:02:48;;;;;;;4.40;2.80;;;;;;;34.74;25.60;100968.22;5069827;28;20387;-60
2022/08/29 11:05:20;;;;;;;3.47;2.63;;;;;;;34.79;25.80;100965.28;5069230;28;20429;-59
2022/08/29 11:08:13;;;;;;;4.70;2.50;;;;;;;34.78;25.91;100954.59;5069672;28;20378;-59
2022/08/29 11:10:48;;;;;;;5.07;2.60;;;;;;;34.77;26.06;100962.06;5058483;28;20387;-60
2022/08/29 11:13:28;;;;;;;4.93;2.58;;;;;;;34.83;26.32;100955.22;5069688;28;20390;-60
2022/08/29 11:16:30;;;;;;;6.10;2.65;;;;;;;34.87;26.04;100960.88;5069612;28;20463;-61
2022/08/29 11:19:13;;;;;;;3.63;2.55;;;;;;;34.83;26.33;100957.16;5044524;28;20456;-60
2022/08/29 11:21:48;;;;;;;8.68;2.80;;;;;;;34.88;26.45;100956.16;5069598;28;20379;-60
2022/08/29 11:24:16;;;;;;;3.47;2.60;;;;;;;35.01;26.60;100960.66;5069453;28;20422;-60
2022/08/29 11:26:44;;;;;;;3.33;2.40;;;;;;;34.99;26.54;100951.94;5072338;28;20444;-60
2022/08/29 11:29:38;;;;;;;6.10;2.70;;;;;;;35.07;26.37;100961.28;5073286;28;20371;-61
2022/08/29 11:32:30;;;;;;;6.65;2.83;;;;;;;35.04;26.57;100960.81;5072504;28;20432;-60
2022/08/29 11:35:21;;;;;;;5.07;2.88;;;;;;;35.04;26.26;100965.50;5041910;28;20792;-60
2022/08/29 11:38:05;;;;;;;5.72;2.35;;;;;;;35.01;26.06;100963.44;5069331;28;20394;-60
2022/08/29 11:40:36;;;;;;;3.90;2.30;;;;;;;34.98;25.65;100961.31;5073288;28;20397;-60
2022/08/29 11:43:04;;;;;;;4.07;2.33;;;;;;;34.98;26.09;100955.81;5073225;28;20371;-60
2022/08/29 11:45:39;;;;;;;3.75;2.38;;;;;;;34.93;26.10;100954.03;5073207;28;20487;-59
2022/08/29 11:48:08;;;;;;;4.15;2.60;;;;;;;34.71;25.60;100952.31;5073111;28;20406;-60